Terminal Aerodrome Forecast
Issued by NWS Spokane, WA

Home | Current Version | Previous Version | Text Only | Print | Product List | Glossary On
Versions: 1 2 3 4 5 6 7 8 9 10 11 12 13 14 15 16 17 18 19 20 21 22 23 24 25 26 27 28 29 30 31 32 33 34 35 36 37 38 39 40 41 42 43 44 45 46 47 48 49 50
000
FTUS46 KOTX 271139
TAFGEG
TAF
KGEG 271139Z 2712/2812 15005KT P6SM BKN013 OVC040
     FM271400 17006KT 5SM -SN OVC015
     FM271600 17007KT 2SM -SN BR BKN012 OVC020
     FM271900 19009KT 1/2SM SN FG OVC007
     FM280000 20007KT 1SM -SN BR BKN008 OVC012
     FM280300 23008KT 6SM BR BKN015 OVC050
     FM280900 24005KT 1 1/2SM BR OVC003=

USA.gov is the U.S. government's official web portal to all federal, state and local government web resources and services.